createdAt,value
2022-09-01T00:01:43.849Z,1.48
2022-09-01T00:04:13.573Z,1.80
2022-09-01T00:06:40.992Z,1.70
2022-09-01T00:09:12.450Z,1.80
2022-09-01T00:11:41.110Z,1.70
2022-09-01T00:14:09.905Z,1.80
2022-09-01T00:16:57.061Z,1.70
2022-09-01T00:19:24.593Z,1.48
2022-09-01T00:21:51.758Z,1.83
2022-09-01T00:24:18.998Z,2.13
2022-09-01T00:26:46.342Z,1.83
2022-09-01T00:29:12.983Z,1.90
2022-09-01T00:31:40.856Z,1.90
2022-09-01T00:34:07.358Z,1.95
2022-09-01T00:36:34.066Z,2.40
2022-09-01T00:39:00.769Z,2.28
2022-09-01T00:41:33.011Z,2.28
2022-09-01T00:44:02.775Z,2.30
2022-09-01T00:46:40.257Z,1.90
2022-09-01T00:49:22.389Z,2.28
2022-09-01T00:51:53.027Z,1.98
2022-09-01T00:56:49.013Z,1.85
2022-09-01T00:59:24.975Z,2.45
2022-09-01T01:01:51.530Z,2.42
2022-09-01T01:04:18.009Z,2.20
2022-09-01T01:06:49.768Z,2.22
2022-09-01T01:09:20.812Z,2.40
2022-09-01T01:11:47.970Z,2.00
2022-09-01T01:14:17.472Z,2.03
2022-09-01T01:16:51.966Z,2.05
2022-09-01T01:20:25.166Z,2.42
2022-09-01T01:23:07.687Z,2.15
2022-09-01T01:25:51.191Z,2.08
2022-09-01T01:28:32.795Z,2.03
2022-09-01T01:31:06.093Z,2.00
2022-09-01T01:33:41.578Z,1.83
2022-09-01T01:36:13.234Z,2.22
2022-09-01T01:38:42.789Z,2.10
2022-09-01T01:41:11.128Z,2.30
2022-09-01T01:43:38.798Z,2.25
2022-09-01T01:46:08.187Z,2.47
2022-09-01T01:48:39.610Z,1.92
2022-09-01T01:51:07.378Z,2.35
2022-09-01T01:53:34.392Z,2.28
2022-09-01T01:56:01.049Z,2.22
2022-09-01T01:58:28.994Z,1.92
2022-09-01T02:00:56.857Z,2.35
2022-09-01T02:03:28.894Z,2.35
2022-09-01T02:05:56.346Z,2.20
2022-09-01T02:08:25.920Z,2.15
2022-09-01T02:10:54.701Z,2.50
2022-09-01T02:13:31.078Z,2.30
2022-09-01T02:16:02.789Z,2.40
2022-09-01T02:18:36.841Z,2.40
2022-09-01T02:21:10.571Z,2.35
2022-09-01T02:23:40.905Z,2.03
2022-09-01T02:26:18.538Z,2.35
2022-09-01T02:28:54.395Z,2.35
2022-09-01T02:33:49.444Z,2.33
2022-09-01T02:36:19.259Z,2.47
2022-09-01T02:38:46.726Z,2.42
2022-09-01T02:41:23.607Z,2.17
2022-09-01T02:43:50.262Z,2.30
2022-09-01T02:46:16.844Z,2.70
2022-09-01T02:48:46.017Z,2.45
2022-09-01T02:51:16.668Z,2.15
2022-09-01T02:53:48.657Z,2.22
2022-09-01T02:56:16.076Z,2.58
2022-09-01T02:58:47.769Z,2.47
2022-09-01T03:01:33.330Z,2.28
2022-09-01T03:04:09.651Z,2.58
2022-09-01T03:06:37.540Z,2.30
2022-09-01T03:09:07.254Z,2.20
2022-09-01T03:11:36.081Z,2.78
2022-09-01T03:14:03.598Z,2.35
2022-09-01T03:16:33.347Z,2.45
2022-09-01T03:19:03.142Z,2.13
2022-09-01T03:21:32.025Z,2.28
2022-09-01T03:24:01.911Z,2.22
2022-09-01T03:26:29.364Z,2.58
2022-09-01T03:28:57.067Z,2.60
2022-09-01T03:31:27.450Z,2.00
2022-09-01T03:33:58.059Z,2.13
2022-09-01T03:36:26.015Z,2.22
2022-09-01T03:38:53.450Z,2.45
2022-09-01T03:41:25.182Z,2.88
2022-09-01T03:43:57.981Z,2.47
2022-09-01T03:46:27.083Z,2.65
2022-09-01T03:48:55.868Z,2.65
2022-09-01T03:51:23.625Z,2.75
2022-09-01T03:53:57.353Z,2.40
2022-09-01T03:56:28.076Z,2.40
2022-09-01T03:58:59.498Z,2.08
2022-09-01T04:01:28.553Z,3.05
2022-09-01T04:03:55.631Z,2.10
2022-09-01T04:06:23.984Z,2.60
2022-09-01T04:08:56.714Z,2.60
2022-09-01T04:11:24.283Z,2.60
2022-09-01T04:13:51.153Z,2.25
2022-09-01T04:16:48.214Z,2.67
2022-09-01T04:19:20.387Z,2.80
2022-09-01T04:21:50.392Z,2.63
2022-09-01T04:24:18.828Z,2.53
2022-09-01T04:26:48.591Z,2.13
2022-09-01T04:29:18.617Z,2.50
2022-09-01T04:31:45.375Z,2.40
2022-09-01T04:34:13.696Z,2.53
2022-09-01T04:36:43.849Z,2.42
2022-09-01T04:39:12.387Z,2.58
2022-09-01T04:41:45.953Z,2.72
2022-09-01T04:44:17.804Z,2.60
2022-09-01T04:46:47.887Z,2.63
2022-09-01T04:49:19.220Z,2.55
2022-09-01T04:51:53.117Z,2.67
2022-09-01T04:54:21.757Z,2.95
2022-09-01T04:56:50.687Z,3.13
2022-09-01T04:59:20.385Z,2.95
2022-09-01T05:01:50.278Z,2.78
2022-09-01T05:04:21.221Z,3.10
2022-09-01T05:06:52.238Z,2.80
2022-09-01T05:09:19.970Z,2.65
2022-09-01T05:11:47.133Z,2.80
2022-09-01T05:14:14.289Z,2.58
2022-09-01T05:16:41.138Z,2.50
2022-09-01T05:19:10.347Z,2.67
2022-09-01T05:21:38.636Z,2.53
2022-09-01T05:24:05.236Z,2.95
2022-09-01T05:26:34.550Z,2.78
2022-09-01T05:29:04.018Z,2.85
2022-09-01T05:31:35.009Z,2.83
2022-09-01T05:34:03.216Z,2.63
2022-09-01T05:36:33.775Z,2.65
2022-09-01T05:41:28.442Z,2.42
2022-09-01T05:43:59.956Z,2.60
2022-09-01T05:46:28.365Z,2.60
2022-09-01T05:48:56.074Z,2.53
2022-09-01T05:51:43.848Z,2.78
2022-09-01T05:54:12.025Z,2.55
2022-09-01T05:56:44.088Z,2.72
2022-09-01T05:59:28.370Z,3.33
2022-09-01T06:01:55.928Z,2.70
2022-09-01T06:04:25.502Z,2.90
2022-09-01T06:07:10.261Z,2.60
2022-09-01T06:09:41.494Z,2.70
2022-09-01T06:12:17.349Z,2.65
2022-09-01T06:14:46.228Z,2.97
2022-09-01T06:17:16.281Z,3.10
2022-09-01T06:19:43.556Z,2.72
2022-09-01T06:22:10.589Z,3.10
2022-09-01T06:24:39.783Z,2.60
2022-09-01T06:27:09.956Z,2.47
2022-09-01T06:29:39.658Z,2.40
2022-09-01T06:32:09.798Z,2.58
2022-09-01T06:34:39.603Z,2.45
2022-09-01T06:37:06.980Z,2.63
2022-09-01T06:39:34.434Z,2.70
2022-09-01T06:42:04.775Z,2.88
2022-09-01T06:44:32.673Z,2.50
2022-09-01T06:47:00.018Z,2.80
2022-09-01T06:49:32.456Z,2.40
2022-09-01T06:52:00.230Z,2.53
2022-09-01T06:54:26.637Z,2.47
2022-09-01T06:56:53.878Z,2.38
2022-09-01T06:59:21.062Z,2.45
2022-09-01T07:04:39.351Z,2.15
2022-09-01T07:10:06.081Z,2.25
2022-09-01T07:13:04.798Z,2.50
2022-09-01T07:18:21.164Z,2.25
2022-09-01T07:23:47.404Z,1.95
2022-09-01T07:26:26.383Z,2.10
2022-09-01T07:29:01.122Z,2.10
2022-09-01T07:39:52.021Z,1.92
2022-09-01T07:41:43.316Z,2.65
2022-09-01T07:45:26.204Z,1.95
2022-09-01T07:47:53.912Z,2.00
2022-09-01T07:53:08.493Z,1.85
2022-09-01T07:55:35.338Z,1.67
2022-09-01T07:58:01.778Z,1.75
2022-09-01T08:00:31.101Z,1.55
2022-09-01T08:02:58.355Z,1.65
2022-09-01T08:05:26.876Z,1.77
2022-09-01T08:07:54.293Z,1.85
2022-09-01T08:10:21.421Z,1.65
2022-09-01T08:12:56.203Z,1.90
2022-09-01T08:15:41.367Z,1.70
2022-09-01T08:18:14.375Z,1.50
2022-09-01T08:23:14.942Z,1.65
2022-09-01T08:25:44.297Z,1.50
2022-09-01T08:28:12.464Z,1.40
2022-09-01T08:30:41.294Z,1.67
2022-09-01T08:33:11.672Z,1.10
2022-09-01T08:38:06.963Z,1.05
2022-09-01T08:40:33.904Z,1.33
2022-09-01T08:43:25.079Z,1.13
2022-09-01T08:45:55.344Z,1.23
2022-09-01T08:49:18.450Z,1.48
2022-09-01T08:51:32.525Z,1.40
2022-09-01T08:54:29.856Z,1.40
2022-09-01T08:57:07.042Z,1.30
2022-09-01T08:59:33.425Z,1.13
2022-09-01T09:02:17.969Z,1.27
2022-09-01T09:05:21.116Z,1.50
2022-09-01T09:08:10.798Z,1.00
2022-09-01T09:10:52.142Z,1.15
2022-09-01T09:13:39.542Z,1.05
2022-09-01T09:16:30.830Z,1.25
2022-09-01T09:19:04.224Z,1.30
2022-09-01T09:21:45.818Z,1.13
2022-09-01T09:24:27.215Z,1.10
2022-09-01T09:29:29.991Z,1.00
2022-09-01T09:32:22.502Z,1.00
2022-09-01T09:34:50.315Z,1.20
2022-09-01T09:37:23.518Z,1.20
2022-09-01T09:40:10.021Z,0.88
2022-09-01T09:43:05.756Z,1.10
2022-09-01T09:45:34.347Z,0.90
2022-09-01T09:48:10.834Z,1.10
2022-09-01T09:50:43.165Z,1.05
2022-09-01T09:53:26.489Z,0.95
2022-09-01T09:55:58.664Z,1.00
2022-09-01T09:58:34.667Z,0.60
2022-09-01T10:01:07.731Z,0.90
2022-09-01T10:03:42.344Z,0.80
2022-09-01T10:06:16.576Z,0.90
2022-09-01T10:08:45.788Z,0.93
2022-09-01T10:11:32.838Z,0.70
2022-09-01T10:14:04.741Z,0.70
2022-09-01T10:16:35.058Z,0.93
2022-09-01T10:19:02.325Z,0.80
2022-09-01T10:21:35.259Z,1.27
2022-09-01T10:24:21.259Z,0.70
2022-09-01T10:26:53.739Z,1.77
2022-09-01T10:29:25.570Z,1.00
2022-09-01T10:32:14.694Z,1.00
2022-09-01T10:34:42.473Z,0.90
2022-09-01T10:37:11.717Z,0.90
2022-09-01T10:40:11.068Z,0.80
2022-09-01T10:42:38.251Z,0.80
2022-09-01T10:45:05.222Z,0.90
2022-09-01T10:47:34.663Z,1.02
2022-09-01T10:50:22.845Z,0.98
2022-09-01T10:52:50.530Z,0.90
2022-09-01T10:55:45.301Z,0.82
2022-09-01T11:01:49.106Z,1.25
2022-09-01T11:04:39.625Z,0.90
2022-09-01T11:07:57.978Z,1.00
2022-09-01T11:10:34.456Z,0.90
2022-09-01T11:13:10.340Z,0.88
2022-09-01T11:15:40.675Z,0.93
2022-09-01T11:18:17.288Z,0.90
2022-09-01T11:20:46.722Z,0.90
2022-09-01T11:23:27.697Z,0.88
2022-09-01T11:28:46.185Z,0.80
2022-09-01T11:31:26.740Z,0.90
2022-09-01T11:34:04.432Z,0.60
2022-09-01T11:36:35.467Z,0.80
2022-09-01T11:39:19.207Z,0.63
2022-09-01T11:41:57.434Z,0.60
2022-09-01T11:44:45.446Z,0.77
2022-09-01T11:47:17.055Z,0.70
2022-09-01T11:49:54.361Z,0.95
2022-09-01T11:52:25.081Z,0.70
2022-09-01T11:54:51.564Z,0.70
2022-09-01T11:57:37.051Z,0.70
2022-09-01T12:00:10.495Z,0.73
2022-09-01T12:02:44.997Z,0.60
2022-09-01T12:05:31.321Z,0.60
2022-09-01T12:08:13.875Z,0.88
2022-09-01T12:13:09.554Z,0.70
2022-09-01T12:16:00.394Z,1.15
2022-09-01T12:18:31.209Z,0.75
2022-09-01T12:21:00.082Z,0.77
2022-09-01T12:23:32.909Z,0.80
2022-09-01T12:26:09.758Z,0.50
2022-09-01T12:28:38.573Z,0.70
2022-09-01T12:31:16.053Z,0.63
2022-09-01T12:33:44.171Z,0.82
2022-09-01T12:36:20.920Z,0.70
2022-09-01T12:38:48.566Z,0.90
2022-09-01T12:41:25.193Z,0.95
2022-09-01T12:43:53.947Z,0.60
2022-09-01T12:46:43.261Z,0.80
2022-09-01T12:49:18.449Z,1.00
2022-09-01T12:51:47.694Z,1.00
2022-09-01T12:54:14.779Z,0.80
2022-09-01T12:56:48.453Z,0.93
2022-09-01T12:59:26.210Z,0.90
2022-09-01T13:02:32.816Z,0.85
2022-09-01T13:05:27.224Z,0.80
2022-09-01T13:07:59.130Z,0.80
2022-09-01T13:10:30.863Z,0.98
2022-09-01T13:13:01.918Z,0.80
2022-09-01T13:15:28.686Z,0.80
2022-09-01T13:17:55.087Z,0.90
2022-09-01T13:20:22.505Z,0.75
2022-09-01T13:22:49.587Z,0.95
2022-09-01T13:25:19.166Z,1.20
2022-09-01T13:27:47.490Z,0.70
2022-09-01T13:30:20.455Z,0.93
2022-09-01T13:35:34.037Z,1.25
2022-09-01T13:38:00.626Z,1.10
2022-09-01T13:40:27.557Z,1.10
2022-09-01T13:42:54.665Z,0.80
2022-09-01T13:45:24.927Z,0.90
2022-09-01T13:53:25.519Z,1.17
2022-09-01T13:55:51.970Z,1.70
2022-09-01T13:58:18.664Z,0.80
2022-09-01T14:00:47.012Z,1.05
2022-09-01T14:03:20.459Z,1.00
2022-09-01T14:05:48.727Z,0.90
2022-09-01T14:08:19.705Z,0.95
2022-09-01T14:10:50.848Z,0.80
2022-09-01T14:13:18.896Z,1.10
2022-09-01T14:15:46.930Z,0.85
2022-09-01T14:18:15.012Z,0.88
2022-09-01T14:20:44.297Z,0.85
2022-09-01T14:23:11.881Z,0.98
2022-09-01T14:25:42.628Z,0.90
2022-09-01T14:28:09.009Z,0.90
2022-09-01T14:30:35.529Z,1.05
2022-09-01T14:33:03.753Z,1.08
2022-09-01T14:35:33.657Z,0.90
2022-09-01T14:38:02.794Z,1.00
2022-09-01T14:40:29.376Z,0.95
2022-09-01T14:42:56.398Z,1.08
2022-09-01T14:45:26.211Z,1.00
2022-09-01T14:47:56.658Z,0.90
2022-09-01T14:50:23.813Z,0.85
2022-09-01T14:52:53.537Z,0.85
2022-09-01T14:55:22.319Z,1.00
2022-09-01T14:57:49.311Z,0.82
2022-09-01T15:00:16.984Z,0.98
2022-09-01T15:02:43.861Z,1.10
2022-09-01T15:05:12.241Z,0.85
2022-09-01T15:07:39.430Z,1.10
2022-09-01T15:10:07.714Z,0.90
2022-09-01T15:12:34.309Z,1.00
2022-09-01T15:15:01.356Z,0.95
2022-09-01T15:17:28.558Z,1.23
2022-09-01T15:19:55.342Z,0.90
2022-09-01T15:22:22.023Z,1.00
2022-09-01T15:24:48.450Z,1.02
2022-09-01T15:27:14.974Z,0.95
2022-09-01T15:29:46.193Z,1.20
2022-09-01T15:32:20.566Z,1.02
2022-09-01T15:37:21.142Z,0.95
2022-09-01T15:39:47.553Z,1.02
2022-09-01T15:44:43.531Z,1.20
2022-09-01T15:47:10.391Z,0.80
2022-09-01T15:49:36.824Z,0.93
2022-09-01T15:52:03.281Z,0.65
2022-09-01T15:54:30.684Z,0.90
2022-09-01T15:56:57.585Z,1.05
2022-09-01T15:59:24.030Z,0.93
2022-09-01T16:01:53.038Z,0.90
2022-09-01T16:04:24.060Z,1.00
2022-09-01T16:06:56.521Z,1.20
2022-09-01T16:09:23.087Z,0.70
2022-09-01T16:11:49.848Z,1.00
2022-09-01T16:14:16.411Z,1.05
2022-09-01T16:16:45.897Z,0.77
2022-09-01T16:19:35.538Z,1.10
2022-09-01T16:22:17.120Z,0.90
2022-09-01T16:24:47.470Z,1.00
2022-09-01T16:27:21.313Z,1.00
2022-09-01T16:29:49.651Z,1.05
2022-09-01T16:32:16.346Z,0.82
2022-09-01T16:34:47.058Z,0.90
2022-09-01T16:37:44.566Z,1.08
2022-09-01T16:40:30.176Z,0.82
2022-09-01T16:43:09.498Z,0.88
2022-09-01T16:45:44.215Z,1.02
2022-09-01T16:48:40.674Z,1.15
2022-09-01T16:51:33.141Z,1.00
2022-09-01T16:54:20.828Z,1.00
2022-09-01T16:57:13.906Z,1.00
2022-09-01T16:59:40.244Z,1.00
2022-09-01T17:02:28.868Z,1.05
2022-09-01T17:05:06.616Z,1.00
2022-09-01T17:07:44.941Z,0.85
2022-09-01T17:10:36.905Z,0.70
2022-09-01T17:13:20.404Z,1.00
2022-09-01T17:16:01.028Z,1.05
2022-09-01T17:18:48.365Z,0.95
2022-09-01T17:21:34.679Z,1.00
2022-09-01T17:24:01.220Z,1.17
2022-09-01T17:26:30.264Z,1.00
2022-09-01T17:29:07.265Z,1.23
2022-09-01T17:31:51.046Z,0.90
2022-09-01T17:34:30.543Z,1.00
2022-09-01T17:37:28.698Z,1.05
2022-09-01T17:40:21.792Z,1.30
2022-09-01T17:43:03.987Z,1.25
2022-09-01T17:45:56.108Z,1.42
2022-09-01T17:48:48.541Z,1.00
2022-09-01T17:51:33.054Z,1.13
2022-09-01T17:54:17.052Z,1.40
2022-09-01T17:56:52.463Z,1.17
2022-09-01T17:59:30.296Z,1.30
2022-09-01T18:02:31.223Z,1.20
2022-09-01T18:05:16.190Z,1.30
2022-09-01T18:07:48.899Z,1.20
2022-09-01T18:10:23.325Z,1.30
2022-09-01T18:12:58.816Z,1.17
2022-09-01T18:15:26.740Z,1.17
2022-09-01T18:18:02.253Z,1.40
2022-09-01T18:21:02.194Z,1.30
2022-09-01T18:23:31.395Z,1.23
2022-09-01T18:26:35.208Z,1.33
2022-09-01T18:29:05.049Z,1.40
2022-09-01T18:31:41.346Z,1.20
2022-09-01T18:34:14.817Z,1.42
2022-09-01T18:37:06.362Z,1.30
2022-09-01T18:39:51.626Z,1.40
2022-09-01T18:42:35.780Z,1.33
2022-09-01T18:45:27.982Z,1.42
2022-09-01T18:48:09.051Z,1.67
2022-09-01T18:51:03.063Z,1.45
2022-09-01T18:53:35.399Z,1.23
2022-09-01T18:56:04.889Z,1.48
2022-09-01T18:59:09.001Z,1.20
2022-09-01T19:01:44.598Z,1.15
2022-09-01T19:04:49.955Z,1.90
2022-09-01T19:07:19.700Z,1.15
2022-09-01T19:09:54.283Z,1.27
2022-09-01T19:12:43.993Z,1.25
2022-09-01T19:15:27.591Z,1.98
2022-09-01T19:18:09.372Z,1.25
2022-09-01T19:20:55.191Z,1.80
2022-09-01T19:23:36.121Z,1.40
2022-09-01T19:26:07.715Z,1.35
2022-09-01T19:28:47.878Z,1.48
2022-09-01T19:31:31.237Z,1.20
2022-09-01T19:34:02.743Z,1.20
2022-09-01T19:36:45.364Z,1.30
2022-09-01T19:39:18.513Z,1.35
2022-09-01T19:42:02.171Z,1.25
2022-09-01T19:44:47.446Z,1.20
2022-09-01T19:47:52.361Z,1.33
2022-09-01T19:50:21.246Z,1.30
2022-09-01T19:53:22.765Z,1.25
2022-09-01T19:56:02.210Z,1.55
2022-09-01T19:58:40.198Z,1.33
2022-09-01T20:01:11.419Z,1.30
2022-09-01T20:03:46.833Z,1.15
2022-09-01T20:06:32.133Z,1.08
2022-09-01T20:09:07.241Z,1.40
2022-09-01T20:11:48.001Z,1.27
2022-09-01T20:14:18.514Z,1.20
2022-09-01T20:19:40.908Z,1.15
2022-09-01T20:22:25.996Z,1.38
2022-09-01T20:25:08.351Z,1.20
2022-09-01T20:27:43.003Z,1.15
2022-09-01T20:30:21.136Z,1.33
2022-09-01T20:33:10.903Z,1.35
2022-09-01T20:35:58.093Z,1.13
2022-09-01T20:38:49.587Z,1.17
2022-09-01T20:41:40.206Z,1.38
2022-09-01T20:44:10.558Z,1.30
2022-09-01T20:49:05.264Z,1.20
2022-09-01T20:52:00.009Z,1.38
2022-09-01T20:54:37.163Z,1.23
2022-09-01T20:57:23.787Z,1.15
2022-09-01T20:59:55.465Z,1.00
2022-09-01T21:02:54.303Z,1.45
2022-09-01T21:05:28.172Z,1.33
2022-09-01T21:08:15.830Z,1.23
2022-09-01T21:10:46.322Z,1.10
2022-09-01T21:13:24.179Z,1.20
2022-09-01T21:16:03.241Z,1.13
2022-09-01T21:18:51.580Z,1.30
2022-09-01T21:21:41.496Z,1.40
2022-09-01T21:24:08.014Z,1.00
2022-09-01T21:26:37.671Z,1.30
2022-09-01T21:29:23.715Z,1.30
2022-09-01T21:31:50.140Z,1.20
2022-09-01T21:34:17.145Z,1.35
2022-09-01T21:36:43.792Z,1.30
2022-09-01T21:39:10.290Z,1.25
2022-09-01T21:41:39.149Z,1.10
2022-09-01T21:44:05.883Z,1.15
2022-09-01T21:46:32.811Z,1.05
2022-09-01T21:48:59.633Z,1.10
2022-09-01T21:51:26.124Z,1.30
2022-09-01T21:53:52.532Z,1.20
2022-09-01T21:56:19.221Z,1.20
2022-09-01T21:58:52.509Z,0.98
2022-09-01T22:01:19.048Z,0.98
2022-09-01T22:03:45.529Z,1.17
2022-09-01T22:06:12.712Z,1.15
2022-09-01T22:08:39.510Z,1.30
2022-09-01T22:11:09.874Z,1.10
2022-09-01T22:13:37.020Z,1.35
2022-09-01T22:16:04.869Z,1.02
2022-09-01T22:18:31.958Z,1.20
2022-09-01T22:21:07.230Z,1.10
2022-09-01T22:23:34.280Z,1.02
2022-09-01T22:26:01.199Z,0.90
2022-09-01T22:28:28.062Z,1.30
2022-09-01T22:30:54.501Z,1.00
2022-09-01T22:33:22.769Z,1.13
2022-09-01T22:35:52.006Z,1.42
2022-09-01T22:38:21.115Z,1.05
2022-09-01T22:40:55.327Z,1.17
2022-09-01T22:43:24.205Z,1.10
2022-09-01T22:45:51.630Z,1.23
2022-09-01T22:48:20.497Z,0.80
2022-09-01T22:50:48.093Z,1.08
2022-09-01T22:53:16.683Z,1.00
2022-09-01T22:55:46.541Z,1.17
2022-09-01T22:58:13.771Z,1.45
2022-09-01T23:00:46.155Z,1.35
2022-09-01T23:03:12.574Z,1.00
2022-09-01T23:05:40.731Z,1.10
2022-09-01T23:08:07.502Z,1.10
2022-09-01T23:10:34.049Z,1.20
2022-09-01T23:13:00.534Z,1.20
2022-09-01T23:15:27.085Z,1.00
2022-09-01T23:17:53.735Z,1.00
2022-09-01T23:20:20.350Z,1.30
2022-09-01T23:22:46.852Z,1.30
2022-09-01T23:25:15.692Z,1.27
2022-09-01T23:27:42.854Z,1.00
2022-09-01T23:30:12.253Z,1.20
2022-09-01T23:32:39.238Z,1.13
2022-09-01T23:35:06.076Z,1.02
2022-09-01T23:37:32.826Z,1.00
2022-09-01T23:39:59.218Z,1.17
2022-09-01T23:42:25.742Z,0.93
2022-09-01T23:44:52.260Z,1.20
2022-09-01T23:47:19.559Z,0.90
2022-09-01T23:49:45.996Z,1.05
2022-09-01T23:52:12.422Z,1.10
2022-09-01T23:54:38.888Z,1.15
2022-09-01T23:57:05.485Z,1.48
2022-09-01T23:59:31.910Z,1.17
